Time;durP1;ratioP1;P1;durP2;ratioP2;P2;SDS_P1;SDS_P2;PMS_P1;PMS_P2;Temp;Humidity;BMP_temperature;BMP_pressure;BME280_temperature;BME280_humidity;BME280_pressure;Samples;Min_cycle;Max_cycle;Signal;HPM_P1;HPM_P2
2022/07/21 00:00:23;;;;;;;10.63;9.53;;;22.90;90.90;;;;;;4978219;28;20515;-76
2022/07/21 00:02:51;;;;;;;12.47;11.17;;;22.80;90.90;;;;;;4995352;28;20483;-75
2022/07/21 00:05:20;;;;;;;12.77;10.63;;;22.80;91.10;;;;;;4977862;28;20445;-75
2022/07/21 00:07:49;;;;;;;13.37;11.10;;;22.80;91.30;;;;;;4977803;28;20508;-75
2022/07/21 00:10:17;;;;;;;10.93;9.83;;;22.70;91.40;;;;;;4995161;28;20528;-76
2022/07/21 00:12:46;;;;;;;10.30;9.20;;;22.70;91.50;;;;;;4977467;28;20991;-76
2022/07/21 00:15:16;;;;;;;11.23;9.97;;;22.70;91.60;;;;;;4977697;28;21025;-75
2022/07/21 00:17:45;;;;;;;10.73;9.63;;;22.70;91.80;;;;;;4995145;28;20445;-76
2022/07/21 00:20:15;;;;;;;14.10;10.10;;;22.60;91.80;;;;;;4994925;28;20429;-76
2022/07/21 00:22:44;;;;;;;14.30;10.37;;;22.60;91.90;;;;;;4994739;28;20539;-76
2022/07/21 00:25:14;;;;;;;11.70;9.77;;;22.70;92.10;;;;;;4977446;28;20453;-76
2022/07/21 00:27:43;;;;;;;10.70;9.70;;;22.70;92.20;;;;;;4995084;28;20520;-76
2022/07/21 00:30:12;;;;;;;10.53;9.47;;;22.70;92.20;;;;;;4994740;28;20535;-76
2022/07/21 00:32:41;;;;;;;12.27;9.53;;;22.70;92.40;;;;;;4994881;28;20485;-76
2022/07/21 00:35:12;;;;;;;10.03;9.00;;;22.70;92.50;;;;;;4977122;28;20539;-75
2022/07/21 00:37:40;;;;;;;14.93;10.00;;;22.70;92.70;;;;;;4994632;28;20425;-76
2022/07/21 00:40:10;;;;;;;15.50;11.53;;;22.70;92.80;;;;;;4994539;28;20468;-75
2022/07/21 00:42:38;;;;;;;11.70;10.50;;;22.60;92.90;;;;;;4994335;28;20503;-75
2022/07/21 00:45:08;;;;;;;11.13;10.10;;;22.60;93.00;;;;;;4994217;28;20510;-75
2022/07/21 00:47:37;;;;;;;11.60;10.10;;;22.60;93.10;;;;;;4994365;28;20539;-75
2022/07/21 00:50:08;;;;;;;14.40;10.67;;;22.70;93.30;;;;;;4994925;28;20444;-76
2022/07/21 00:52:38;;;;;;;10.23;9.33;;;22.70;93.30;;;;;;4994663;28;20472;-76
2022/07/21 00:55:10;;;;;;;9.90;9.03;;;22.70;93.40;;;;;;4976896;28;20452;-75
2022/07/21 00:57:38;;;;;;;14.60;10.50;;;22.70;93.50;;;;;;4994291;28;20911;-75
2022/07/21 01:00:09;;;;;;;12.37;9.30;;;22.70;93.50;;;;;;4976751;28;20473;-75
2022/07/21 01:02:38;;;;;;;10.20;9.30;;;22.70;93.50;;;;;;4976644;28;20551;-75
2022/07/21 01:05:12;;;;;;;12.97;8.50;;;22.80;93.60;;;;;;4994385;28;21017;-75
2022/07/21 01:07:44;;;;;;;9.70;8.77;;;22.80;93.50;;;;;;4976791;28;20503;-75
2022/07/21 01:10:13;;;;;;;8.87;8.07;;;22.80;93.50;;;;;;4994131;28;20428;-75
2022/07/21 01:12:42;;;;;;;13.90;10.30;;;22.80;93.50;;;;;;4994026;28;20461;-75
2022/07/21 01:15:12;;;;;;;9.53;8.63;;;22.80;93.50;;;;;;4993991;28;20563;-75
2022/07/21 01:17:42;;;;;;;8.70;7.97;;;22.80;93.50;;;;;;4994021;28;20531;-75
2022/07/21 01:20:13;;;;;;;9.70;8.90;;;22.80;93.60;;;;;;4994197;28;20785;-75
2022/07/21 01:22:44;;;;;;;9.10;8.20;;;22.80;93.70;;;;;;4994431;28;20852;-75
2022/07/21 01:25:13;;;;;;;9.93;8.93;;;22.80;94.10;;;;;;4994267;28;20449;-75
2022/07/21 01:27:41;;;;;;;8.43;7.63;;;22.80;93.90;;;;;;4993905;28;20535;-75
2022/07/21 01:30:12;;;;;;;9.53;8.40;;;22.70;93.90;;;;;;4994425;28;20444;-75
2022/07/21 01:32:41;;;;;;;10.30;7.70;;;22.70;94.00;;;;;;4993804;28;20465;-75
2022/07/21 01:35:11;;;;;;;8.80;6.83;;;22.60;94.10;;;;;;4976373;28;20540;-75
2022/07/21 01:37:43;;;;;;;8.47;7.50;;;22.60;94.20;;;;;;4993815;28;20892;-76
2022/07/21 01:42:58;;;;;;;6.93;5.87;;;22.50;94.40;;;;;;4993693;28;20556;-75
2022/07/21 01:45:27;;;;;;;6.57;5.93;;;22.40;94.50;;;;;;4993619;28;20452;-75
2022/07/21 01:47:56;;;;;;;9.23;5.93;;;22.40;94.60;;;;;;4993961;28;20464;-75
2022/07/21 01:50:27;;;;;;;7.30;5.83;;;22.30;94.70;;;;;;4993803;28;20464;-75
2022/07/21 01:52:58;;;;;;;7.33;5.77;;;22.30;94.80;;;;;;4993832;28;20460;-76
2022/07/21 01:55:28;;;;;;;6.67;5.97;;;22.20;94.90;;;;;;4994076;28;20427;-76
2022/07/21 01:57:56;;;;;;;10.03;6.57;;;22.20;95.00;;;;;;4994061;28;20930;-76
2022/07/21 02:00:25;;;;;;;8.17;5.57;;;22.20;95.00;;;;;;4996762;28;20445;-75
2022/07/21 02:02:53;;;;;;;6.40;4.80;;;22.20;95.10;;;;;;4997402;28;20547;-76
2022/07/21 02:05:22;;;;;;;7.67;6.10;;;22.10;95.20;;;;;;4997319;28;20472;-76
2022/07/21 02:07:51;;;;;;;7.37;5.73;;;22.10;95.20;;;;;;4997327;28;20452;-75
2022/07/21 02:10:20;;;;;;;6.80;5.53;;;22.10;95.30;;;;;;4997283;28;20856;-75
2022/07/21 02:12:48;;;;;;;6.90;5.60;;;22.00;95.40;;;;;;4997206;28;20884;-76
2022/07/21 02:15:17;;;;;;;6.43;5.23;;;22.00;95.80;;;;;;4997850;28;20445;-76
2022/07/21 02:17:45;;;;;;;6.77;5.37;;;22.00;95.60;;;;;;4997474;28;20524;-75
2022/07/21 02:20:13;;;;;;;8.13;5.30;;;22.00;95.70;;;;;;4997171;28;20491;-76
2022/07/21 02:22:44;;;;;;;7.77;5.33;;;22.00;95.80;;;;;;4997013;28;21000;-76
2022/07/21 02:25:13;;;;;;;5.77;5.03;;;21.90;95.90;;;;;;4997281;28;20812;-76
2022/07/21 02:27:42;;;;;;;6.80;5.50;;;21.90;96.00;;;;;;4997274;28;20857;-75
2022/07/21 02:30:12;;;;;;;6.53;5.90;;;21.90;96.10;;;;;;4997339;28;20445;-76
2022/07/21 02:32:41;;;;;;;7.10;5.70;;;21.90;96.20;;;;;;4996811;28;20872;-75
2022/07/21 02:35:10;;;;;;;7.33;5.13;;;21.90;96.30;;;;;;4996790;28;20604;-75
2022/07/21 02:37:38;;;;;;;7.13;6.47;;;21.90;96.40;;;;;;4979463;28;20452;-76
2022/07/21 02:40:08;;;;;;;7.10;5.83;;;21.80;96.50;;;;;;4996994;28;20452;-76
2022/07/21 02:42:37;;;;;;;7.33;5.53;;;21.80;96.60;;;;;;4996619;28;20811;-75
2022/07/21 02:45:09;;;;;;;5.63;5.13;;;21.80;96.70;;;;;;4979086;28;20515;-76
2022/07/21 02:47:50;;;;;;;6.90;6.07;;;21.80;96.80;;;;;;4996606;28;20857;-75
2022/07/21 02:50:19;;;;;;;6.07;5.13;;;21.80;96.90;;;;;;4997130;28;20435;-76
2022/07/21 02:52:48;;;;;;;8.00;5.53;;;21.70;96.90;;;;;;4979064;28;20566;-75
2022/07/21 02:55:17;;;;;;;6.53;5.70;;;21.70;97.00;;;;;;4996518;28;20491;-75
2022/07/21 02:57:45;;;;;;;6.33;5.60;;;21.70;97.10;;;;;;4996761;28;20524;-76
2022/07/21 03:00:15;;;;;;;6.90;6.00;;;21.70;97.30;;;;;;4996368;28;20811;-76
2022/07/21 03:02:43;;;;;;;10.13;6.27;;;21.70;97.50;;;;;;4996370;28;20457;-76
2022/07/21 03:05:11;;;;;;;5.67;5.07;;;21.70;97.60;;;;;;4996260;28;20477;-76
2022/07/21 03:07:39;;;;;;;7.03;6.03;;;21.70;97.80;;;;;;4996512;28;20795;-76
2022/07/21 03:10:09;;;;;;;6.70;5.67;;;21.60;97.90;;;;;;4995493;28;20965;-75
2022/07/21 03:12:37;;;;;;;6.50;5.77;;;21.70;98.00;;;;;;4978370;28;20464;-76
2022/07/21 03:15:06;;;;;;;8.30;6.30;;;21.70;98.20;;;;;;4978861;28;21040;-75
2022/07/21 03:17:36;;;;;;;9.03;6.27;;;21.60;98.20;;;;;;4997127;28;20519;-76
2022/07/21 03:20:05;;;;;;;6.57;5.87;;;21.60;98.40;;;;;;4978741;28;20535;-76
2022/07/21 03:22:33;;;;;;;6.20;5.60;;;21.50;98.60;;;;;;4978490;28;20923;-76
2022/07/21 03:25:01;;;;;;;6.13;5.57;;;21.60;98.80;;;;;;4995854;28;20511;-75
2022/07/21 03:27:29;;;;;;;8.07;6.73;;;21.50;98.90;;;;;;4996298;28;20511;-75
2022/07/21 03:29:58;;;;;;;8.73;6.63;;;21.50;99.10;;;;;;4978679;28;20528;-75
2022/07/21 03:32:26;;;;;;;6.43;5.93;;;21.40;99.20;;;;;;4995917;28;20483;-75
2022/07/21 03:34:55;;;;;;;6.00;5.43;;;21.40;99.50;;;;;;4996089;28;20457;-75
2022/07/21 03:37:23;;;;;;;7.40;6.70;;;21.40;99.60;;;;;;4996364;28;20520;-76
2022/07/21 03:39:51;;;;;;;8.20;6.07;;;21.40;99.80;;;;;;4995779;28;20440;-76
2022/07/21 03:42:20;;;;;;;7.10;6.40;;;21.40;99.90;;;;;;4995841;28;20461;-76
2022/07/21 03:44:48;;;;;;;6.60;5.90;;;21.40;99.90;;;;;;4995558;28;20515;-76
2022/07/21 03:47:16;;;;;;;6.50;5.33;;;21.40;99.90;;;;;;4995831;28;20930;-76
2022/07/21 03:49:45;;;;;;;6.60;5.80;;;21.40;99.90;;;;;;4995939;28;20800;-76
2022/07/21 03:52:14;;;;;;;6.90;6.20;;;21.40;99.90;;;;;;4995478;28;20803;-76
2022/07/21 03:54:42;;;;;;;7.03;5.90;;;21.40;99.90;;;;;;4995445;28;20474;-76
2022/07/21 03:57:12;;;;;;;6.60;6.00;;;21.40;99.90;;;;;;4995313;28;20440;-76
2022/07/21 03:59:40;;;;;;;8.63;6.47;;;21.30;99.90;;;;;;4995612;28;20893;-75
2022/07/21 04:02:08;;;;;;;6.97;6.37;;;21.30;99.90;;;;;;4995473;28;20536;-76
2022/07/21 04:04:36;;;;;;;8.07;6.80;;;21.30;99.90;;;;;;4977720;28;21032;-76
2022/07/21 04:07:04;;;;;;;7.90;7.00;;;21.20;99.90;;;;;;4977737;28;20455;-76
2022/07/21 04:09:34;;;;;;;7.37;6.67;;;21.20;99.90;;;;;;4995337;28;20484;-76
2022/07/21 04:12:02;;;;;;;5.90;5.30;;;21.20;99.90;;;;;;4995136;28;20489;-76
2022/07/21 04:14:31;;;;;;;7.30;6.60;;;21.10;99.90;;;;;;4995161;28;20511;-76
2022/07/21 04:16:59;;;;;;;6.67;6.07;;;21.10;99.90;;;;;;4977683;28;20445;-77
2022/07/21 04:19:28;;;;;;;9.13;7.30;;;21.10;99.90;;;;;;4995301;28;20433;-77
2022/07/21 04:21:56;;;;;;;7.60;6.80;;;21.00;99.90;;;;;;4977843;28;20465;-78
2022/07/21 04:24:24;;;;;;;9.80;7.23;;;21.00;99.90;;;;;;4995330;28;20536;-77
2022/07/21 04:26:53;;;;;;;7.63;6.93;;;21.00;99.90;;;;;;4996050;28;20996;-78
2022/07/21 04:29:29;;;;;;;9.33;6.97;;;21.00;99.90;;;;;;4996066;28;20508;-77
2022/07/21 04:31:58;;;;;;;7.90;6.63;;;21.00;99.90;;;;;;4978361;28;20500;-78
2022/07/21 04:34:27;;;;;;;7.80;7.00;;;21.00;99.90;;;;;;4995221;28;20440;-77
2022/07/21 04:36:55;;;;;;;7.70;7.00;;;21.00;99.90;;;;;;4995069;28;20556;-77
2022/07/21 04:39:23;;;;;;;8.20;7.40;;;20.90;99.90;;;;;;4995043;28;20445;-77
2022/07/21 04:41:53;;;;;;;7.60;6.90;;;20.90;99.90;;;;;;4979404;28;20491;-77
2022/07/21 04:44:21;;;;;;;7.83;7.13;;;20.90;99.90;;;;;;4979543;28;20471;-77
2022/07/21 04:46:49;;;;;;;7.30;6.60;;;20.90;99.90;;;;;;4997406;28;20488;-77
2022/07/21 04:49:17;;;;;;;8.10;7.30;;;20.90;99.90;;;;;;4978009;28;20453;-77
2022/07/21 04:51:46;;;;;;;9.30;7.60;;;20.80;99.90;;;;;;4977416;28;20512;-77
2022/07/21 04:54:14;;;;;;;9.43;8.10;;;20.80;99.90;;;;;;4994671;28;20455;-77
2022/07/21 04:56:44;;;;;;;9.00;8.07;;;20.80;99.90;;;;;;4994635;28;20877;-77
2022/07/21 04:59:13;;;;;;;8.87;7.93;;;20.70;99.90;;;;;;4994533;28;20527;-78
2022/07/21 05:01:42;;;;;;;8.70;7.90;;;20.70;99.90;;;;;;4994875;28;20465;-74
2022/07/21 05:04:10;;;;;;;7.77;7.13;;;20.70;99.90;;;;;;4994566;28;20536;-74
2022/07/21 05:06:38;;;;;;;9.50;8.60;;;20.70;99.90;;;;;;4994382;28;20831;-74
2022/07/21 05:09:06;;;;;;;9.27;8.40;;;20.70;99.90;;;;;;4976733;28;20445;-74
2022/07/21 05:11:34;;;;;;;8.30;7.53;;;20.70;99.90;;;;;;4993990;28;20986;-74
2022/07/21 05:14:02;;;;;;;9.77;8.77;;;20.60;99.90;;;;;;4994055;28;20821;-74
2022/07/21 05:16:38;;;;;;;12.57;8.40;;;20.60;99.90;;;;;;4994194;28;20425;-74
2022/07/21 05:19:07;;;;;;;10.03;9.03;;;20.60;99.90;;;;;;4994031;28;20439;-74
2022/07/21 05:21:36;;;;;;;9.77;8.87;;;20.60;99.90;;;;;;4993949;28;20890;-75
2022/07/21 05:24:04;;;;;;;9.10;8.13;;;20.60;99.90;;;;;;4994062;28;20455;-74
2022/07/21 05:26:32;;;;;;;10.80;9.70;;;20.60;99.90;;;;;;4993896;28;20476;-74
2022/07/21 05:29:01;;;;;;;9.93;9.00;;;20.60;99.90;;;;;;4976469;28;20445;-74
2022/07/21 05:31:29;;;;;;;11.23;9.93;;;20.60;99.90;;;;;;4994068;28;20465;-74
2022/07/21 05:33:58;;;;;;;11.30;10.20;;;20.60;99.90;;;;;;4994634;28;20436;-74
2022/07/21 05:36:26;;;;;;;9.97;9.07;;;20.60;99.90;;;;;;4997935;28;20531;-74
2022/07/21 05:38:54;;;;;;;12.23;11.03;;;20.60;99.90;;;;;;4980702;28;20970;-74
2022/07/21 05:41:23;;;;;;;12.07;11.03;;;20.60;99.90;;;;;;4980525;28;20464;-74
2022/07/21 05:43:53;;;;;;;10.90;9.90;;;20.60;99.90;;;;;;4997800;28;20433;-74
2022/07/21 05:46:21;;;;;;;12.13;10.87;;;20.60;99.90;;;;;;4998300;28;20483;-74
2022/07/21 05:48:49;;;;;;;11.73;10.73;;;20.60;99.90;;;;;;4997841;28;20960;-74
2022/07/21 05:51:19;;;;;;;12.13;10.93;;;20.60;99.90;;;;;;4980284;28;20448;-74
2022/07/21 05:53:47;;;;;;;11.10;10.10;;;20.60;99.90;;;;;;4998116;28;20531;-74
2022/07/21 05:56:15;;;;;;;12.20;11.20;;;20.60;99.90;;;;;;4997739;28;20523;-74
2022/07/21 05:58:43;;;;;;;11.50;10.40;;;20.60;99.90;;;;;;4991719;28;20487;-74
2022/07/21 06:01:13;;;;;;;14.80;12.20;;;20.60;99.90;;;;;;4996183;28;20445;-74
2022/07/21 06:03:44;;;;;;;11.77;10.63;;;20.60;99.90;;;;;;4979994;28;20501;-75
2022/07/21 06:06:15;;;;;;;13.00;11.70;;;20.60;99.90;;;;;;4989111;28;20464;-76
2022/07/21 06:08:46;;;;;;;14.17;12.67;;;20.70;99.90;;;;;;4987864;28;20429;-75
2022/07/21 06:11:17;;;;;;;13.50;12.17;;;20.70;99.90;;;;;;4971611;28;20548;-75
2022/07/21 06:13:45;;;;;;;13.40;12.27;;;20.70;99.90;;;;;;4970236;28;20495;-75
2022/07/21 06:16:14;;;;;;;12.80;11.60;;;20.70;99.90;;;;;;4994661;28;20524;-75
2022/07/21 06:18:42;;;;;;;13.90;12.60;;;20.70;99.90;;;;;;4978659;28;20438;-74
2022/07/21 06:21:10;;;;;;;13.23;12.10;;;20.70;99.90;;;;;;4987869;28;20473;-74
2022/07/21 06:23:38;;;;;;;13.23;12.03;;;20.70;99.90;;;;;;4990535;28;20509;-75
2022/07/21 06:26:08;;;;;;;13.83;12.63;;;20.70;99.90;;;;;;4985077;28;20469;-74
2022/07/21 06:28:36;;;;;;;14.90;13.50;;;20.70;99.90;;;;;;4994966;28;20441;-74
2022/07/21 06:31:05;;;;;;;14.63;13.33;;;20.70;99.90;;;;;;4998842;28;20442;-74
2022/07/21 06:33:33;;;;;;;13.00;11.73;;;20.70;99.90;;;;;;4997693;28;20442;-74
2022/07/21 06:36:01;;;;;;;15.83;14.43;;;20.70;99.90;;;;;;4998036;28;20434;-74
2022/07/21 06:38:31;;;;;;;17.83;15.80;;;20.70;99.90;;;;;;4994013;28;20449;-74
2022/07/21 06:40:59;;;;;;;15.93;14.43;;;20.80;99.90;;;;;;4992188;28;20951;-74
2022/07/21 06:43:29;;;;;;;19.23;17.50;;;20.70;99.90;;;;;;4970598;28;20496;-74
2022/07/21 06:45:58;;;;;;;19.00;17.30;;;20.70;99.90;;;;;;4967220;28;20489;-74
2022/07/21 06:48:26;;;;;;;17.90;16.27;;;20.70;99.90;;;;;;4989365;28;20446;-75
2022/07/21 06:50:55;;;;;;;20.33;18.23;;;20.70;99.90;;;;;;4985818;28;20552;-75
2022/07/21 06:53:25;;;;;;;21.03;19.23;;;20.70;99.90;;;;;;4962967;28;20560;-75
2022/07/21 06:55:53;;;;;;;22.10;20.13;;;20.70;99.90;;;;;;4977671;28;20453;-75
2022/07/21 06:58:34;;;;;;;22.83;20.73;;;20.60;99.90;;;;;;4960121;28;20441;-76
2022/07/21 07:01:07;;;;;;;23.17;21.07;;;20.60;99.90;;;;;;4977477;28;20437;-76
2022/07/21 07:03:37;;;;;;;24.20;21.90;;;20.60;99.90;;;;;;4977396;28;20863;-78
2022/07/21 07:06:06;;;;;;;23.80;20.40;;;20.60;99.90;;;;;;4961264;28;20476;-78
2022/07/21 07:08:34;;;;;;;21.20;19.40;;;20.60;99.90;;;;;;4961055;28;20894;-77
2022/07/21 07:11:11;;;;;;;20.93;19.23;;;20.60;99.90;;;;;;4976468;28;20453;-77
2022/07/21 07:13:40;;;;;;;20.80;18.80;;;20.60;99.90;;;;;;4978246;28;20465;-78
2022/07/21 07:16:29;;;;;;;19.07;17.37;;;20.60;99.90;;;;;;4977185;28;20982;-78
2022/07/21 07:18:57;;;;;;;19.37;17.57;;;20.60;99.90;;;;;;4961740;28;20943;-78
2022/07/21 07:21:25;;;;;;;19.40;17.70;;;20.70;99.90;;;;;;4981031;28;20967;-78
2022/07/21 07:23:54;;;;;;;18.70;17.10;;;20.70;99.90;;;;;;4983307;28;20544;-80
2022/07/21 07:26:23;;;;;;;18.23;16.60;;;20.70;99.90;;;;;;4964235;28;20473;-79
2022/07/21 07:28:53;;;;;;;17.73;16.33;;;20.70;99.90;;;;;;4980899;28;20969;-79
2022/07/21 07:31:22;;;;;;;17.07;15.70;;;20.80;99.90;;;;;;4962439;28;20450;-79
2022/07/21 07:33:50;;;;;;;16.70;15.40;;;20.80;99.90;;;;;;4967130;28;20480;-79
2022/07/21 07:36:19;;;;;;;15.87;14.57;;;20.80;99.90;;;;;;4984371;28;20780;-80
2022/07/21 07:38:48;;;;;;;13.97;12.77;;;20.70;99.90;;;;;;4972842;28;20954;-79
2022/07/21 07:41:16;;;;;;;14.67;13.23;;;20.70;99.90;;;;;;4972450;28;20951;-79
2022/07/21 07:43:45;;;;;;;13.87;12.77;;;20.80;99.90;;;;;;4973481;28;20452;-79
2022/07/21 07:46:15;;;;;;;13.17;12.00;;;20.80;99.90;;;;;;4979142;28;20943;-77
2022/07/21 07:48:43;;;;;;;12.83;11.83;;;20.80;99.90;;;;;;4960013;28;20512;-77
2022/07/21 07:51:12;;;;;;;14.13;12.80;;;20.80;99.90;;;;;;4977749;28;20472;-77
2022/07/21 07:53:41;;;;;;;12.13;11.10;;;20.90;99.90;;;;;;4960279;28;21005;-78
2022/07/21 07:56:10;;;;;;;11.73;10.63;;;20.90;99.90;;;;;;4960390;28;20448;-78
2022/07/21 07:58:38;;;;;;;11.47;10.50;;;20.90;99.90;;;;;;4977148;28;20985;-78
2022/07/21 08:01:07;;;;;;;11.13;10.23;;;21.00;99.90;;;;;;4978029;28;20496;-78
2022/07/21 08:03:37;;;;;;;10.50;9.70;;;21.00;99.90;;;;;;4960847;28;20453;-78
2022/07/21 08:06:07;;;;;;;10.90;10.10;;;21.00;99.90;;;;;;4978006;28;20508;-78
2022/07/21 08:08:35;;;;;;;10.90;10.00;;;21.00;99.90;;;;;;4960420;28;20504;-78
2022/07/21 08:11:04;;;;;;;10.63;9.77;;;20.90;99.90;;;;;;4960543;28;20446;-78
2022/07/21 08:13:32;;;;;;;12.63;11.63;;;20.90;99.90;;;;;;4961706;28;20521;-79
2022/07/21 08:16:00;;;;;;;10.73;9.93;;;20.90;99.90;;;;;;4961635;28;20446;-78
2022/07/21 08:18:29;;;;;;;11.50;10.60;;;20.90;99.90;;;;;;4979046;28;20459;-78
2022/07/21 08:20:58;;;;;;;10.30;9.40;;;20.90;99.90;;;;;;4961875;28;20457;-78
2022/07/21 08:23:26;;;;;;;10.67;9.80;;;20.80;99.90;;;;;;4961884;28;20481;-79
2022/07/21 08:25:55;;;;;;;11.60;10.60;;;20.80;99.90;;;;;;4961437;28;20453;-79
2022/07/21 08:28:24;;;;;;;11.37;10.37;;;20.80;99.90;;;;;;4961274;28;20508;-79
2022/07/21 08:30:52;;;;;;;10.10;9.30;;;20.80;99.90;;;;;;4961543;28;20489;-80
2022/07/21 08:33:20;;;;;;;10.77;9.87;;;20.80;99.90;;;;;;4977662;28;20497;-80
2022/07/21 08:35:49;;;;;;;9.90;9.10;;;20.90;99.90;;;;;;4960243;28;20454;-80
2022/07/21 08:38:19;;;;;;;11.57;10.67;;;20.90;99.90;;;;;;4977208;28;20481;-80
2022/07/21 08:40:48;;;;;;;13.60;12.40;;;20.90;99.90;;;;;;4978788;28;20430;-80
2022/07/21 08:43:16;;;;;;;11.10;10.30;;;21.00;99.90;;;;;;4960502;28;20536;-80
2022/07/21 08:45:45;;;;;;;11.37;10.57;;;21.00;99.90;;;;;;4960320;28;21002;-80
2022/07/21 08:48:17;;;;;;;11.27;10.37;;;21.10;99.90;;;;;;4958703;28;21069;-81
2022/07/21 08:50:46;;;;;;;10.90;10.00;;;21.20;99.90;;;;;;4977113;28;20489;-80
2022/07/21 08:53:14;;;;;;;11.70;10.80;;;21.30;99.90;;;;;;4976116;28;21058;-80
2022/07/21 08:55:44;;;;;;;9.80;9.10;;;21.40;99.90;;;;;;4976992;28;20806;-79
2022/07/21 08:58:13;;;;;;;10.97;10.17;;;21.40;99.90;;;;;;4975966;28;20457;-80
2022/07/21 09:00:44;;;;;;;9.43;8.73;;;21.40;99.90;;;;;;4958584;28;20460;-80
2022/07/21 09:03:15;;;;;;;10.10;9.30;;;21.50;99.90;;;;;;4980431;28;20481;-81
2022/07/21 09:05:44;;;;;;;8.30;7.60;;;21.50;99.90;;;;;;4965860;28;20461;-81
2022/07/21 09:08:12;;;;;;;9.10;8.30;;;21.60;99.90;;;;;;4981392;28;20484;-81
2022/07/21 09:10:40;;;;;;;7.47;6.87;;;21.70;99.90;;;;;;4981123;28;20935;-81
2022/07/21 09:13:11;;;;;;;9.27;8.47;;;21.70;99.90;;;;;;4960989;28;20481;-81
2022/07/21 09:15:39;;;;;;;7.80;7.20;;;21.70;99.90;;;;;;4962601;28;20485;-81
2022/07/21 09:18:10;;;;;;;8.13;7.43;;;21.70;99.90;;;;;;4964721;28;20446;-81
2022/07/21 09:20:47;;;;;;;9.20;8.43;;;21.70;99.90;;;;;;4967545;28;20521;-81
2022/07/21 09:23:17;;;;;;;9.90;8.90;;;21.60;99.90;;;;;;4969083;28;20501;-81
2022/07/21 09:25:47;;;;;;;10.10;9.30;;;21.60;99.90;;;;;;4966856;28;20452;-81
2022/07/21 09:28:20;;;;;;;9.13;8.43;;;21.60;99.90;;;;;;4964098;28;20469;-81
2022/07/21 09:30:58;;;;;;;9.70;9.00;;;21.60;99.90;;;;;;4962803;28;20502;-81
2022/07/21 09:33:31;;;;;;;9.50;8.80;;;21.60;99.90;;;;;;4959952;28;20892;-81
2022/07/21 09:36:03;;;;;;;10.90;9.90;;;21.70;99.90;;;;;;4960407;28;20445;-81
2022/07/21 09:38:32;;;;;;;11.17;10.37;;;21.70;99.90;;;;;;4962900;28;20466;-82
2022/07/21 09:41:14;;;;;;;10.57;9.67;;;21.80;99.90;;;;;;4961776;28;20456;-81
2022/07/21 09:43:45;;;;;;;10.50;9.70;;;22.00;99.90;;;;;;4978303;28;20517;-81
2022/07/21 09:46:17;;;;;;;9.90;9.00;;;22.00;99.90;;;;;;4976847;28;20450;-82
2022/07/21 09:48:48;;;;;;;9.50;8.80;;;22.10;99.90;;;;;;4978553;28;20881;-81
2022/07/21 09:51:41;;;;;;;9.50;8.80;;;22.20;99.90;;;;;;4985165;28;20556;-81
2022/07/21 09:54:12;;;;;;;10.17;9.37;;;22.20;99.90;;;;;;4962064;28;20449;-81
2022/07/21 09:56:45;;;;;;;11.07;9.97;;;22.30;99.90;;;;;;4959110;28;20445;-81
2022/07/21 09:59:17;;;;;;;10.20;9.40;;;22.40;99.90;;;;;;4978241;28;20418;-81
2022/07/21 10:01:47;;;;;;;11.13;10.30;;;22.50;99.90;;;;;;4962563;28;20845;-81
2022/07/21 10:04:23;;;;;;;11.00;10.10;;;22.50;99.90;;;;;;4980713;28;20476;-81
2022/07/21 10:07:11;;;;;;;12.00;10.77;;;22.60;99.90;;;;;;4961593;28;20909;-81
2022/07/21 10:09:40;;;;;;;10.20;9.40;;;22.60;99.90;;;;;;4958729;28;20569;-81
2022/07/21 10:12:09;;;;;;;9.87;9.07;;;22.60;99.90;;;;;;4958541;28;20539;-81
2022/07/21 10:14:39;;;;;;;10.87;10.07;;;22.60;99.90;;;;;;4958904;28;20517;-81
2022/07/21 10:17:07;;;;;;;10.27;9.47;;;22.60;99.90;;;;;;4959879;28;21009;-81
2022/07/21 10:19:42;;;;;;;11.03;10.07;;;22.70;99.90;;;;;;4958823;28;20441;-81
2022/07/21 10:22:24;;;;;;;11.60;10.73;;;22.80;99.90;;;;;;4961911;28;20504;-81
2022/07/21 10:24:53;;;;;;;11.33;10.43;;;22.90;99.90;;;;;;4979269;28;20777;-80
2022/07/21 10:27:21;;;;;;;12.70;11.50;;;23.10;99.90;;;;;;4962119;28;20453;-81
2022/07/21 10:30:14;;;;;;;11.50;10.60;;;23.30;99.90;;;;;;4979739;28;20453;-81
2022/07/21 10:32:51;;;;;;;12.70;11.70;;;23.30;99.90;;;;;;4961721;28;20473;-81
2022/07/21 10:35:35;;;;;;;11.50;10.70;;;23.40;99.90;;;;;;4963992;28;20452;-82
2022/07/21 10:38:32;;;;;;;11.60;10.70;;;23.40;99.90;;;;;;4981021;28;20499;-82
2022/07/21 10:45:48;;;;;;;12.33;11.20;;;23.60;99.90;;;;;;4967406;28;20460;-82
2022/07/21 10:49:16;;;;;;;12.90;11.90;;;23.80;99.90;;;;;;4966447;28;20982;-82
2022/07/21 10:56:53;;;;;;;13.87;12.97;;;23.90;99.90;;;;;;4970457;28;20497;-82
2022/07/21 11:21:39;;;;;;;15.40;14.20;;;24.40;99.90;;;;;;4972659;28;20473;-82
2022/07/21 11:24:34;;;;;;;14.97;13.70;;;24.40;99.90;;;;;;4975161;28;20521;-82
2022/07/21 11:27:05;;;;;;;15.97;14.77;;;24.50;99.90;;;;;;4972212;28;20453;-81
2022/07/21 11:29:35;;;;;;;16.60;15.30;;;24.50;99.90;;;;;;4968694;28;20465;-81
2022/07/21 11:32:05;;;;;;;15.90;14.60;;;24.50;99.90;;;;;;4980084;28;20466;-81
2022/07/21 11:34:45;;;;;;;17.17;15.77;;;24.60;99.90;;;;;;4981374;28;20450;-82
2022/07/21 11:37:17;;;;;;;15.60;14.30;;;24.70;99.90;;;;;;4982292;28;20481;-82
2022/07/21 11:40:06;;;;;;;15.83;14.53;;;24.70;99.90;;;;;;4981081;28;20446;-81
2022/07/21 11:42:35;;;;;;;16.60;15.20;;;24.70;99.90;;;;;;4980888;28;20819;-81
2022/07/21 11:45:04;;;;;;;16.53;15.20;;;24.70;99.90;;;;;;4979695;28;20480;-81
2022/07/21 11:47:33;;;;;;;16.53;15.33;;;24.80;99.90;;;;;;4962772;28;20449;-81
2022/07/21 11:50:04;;;;;;;15.67;14.47;;;24.80;99.90;;;;;;4962561;28;20481;-81
2022/07/21 11:52:36;;;;;;;17.00;15.70;;;24.90;99.90;;;;;;4962587;28;20469;-81
2022/07/21 11:55:07;;;;;;;16.50;15.20;;;24.90;99.90;;;;;;4962645;28;20471;-81
2022/07/21 11:57:41;;;;;;;15.87;14.67;;;24.90;99.90;;;;;;4980290;28;20769;-82
2022/07/21 12:00:13;;;;;;;16.83;15.63;;;24.90;99.90;;;;;;4979924;28;20422;-81
2022/07/21 12:02:41;;;;;;;17.90;16.47;;;24.90;99.90;;;;;;4962297;28;20466;-81
2022/07/21 12:05:10;;;;;;;19.10;17.60;;;24.90;99.90;;;;;;4979720;28;20445;-81
2022/07/21 12:07:42;;;;;;;17.67;16.27;;;24.90;99.90;;;;;;4961514;28;20556;-82
2022/07/21 12:10:13;;;;;;;17.77;16.20;;;25.00;99.90;;;;;;4980392;28;20477;-82
2022/07/21 12:12:44;;;;;;;17.40;16.00;;;25.00;99.90;;;;;;4963328;28;21022;-82
2022/07/21 12:15:15;;;;;;;17.70;16.30;;;25.10;99.90;;;;;;4981359;28;20453;-81
2022/07/21 12:17:46;;;;;;;17.13;15.53;;;25.20;99.90;;;;;;4981435;28;20422;-81
2022/07/21 12:20:16;;;;;;;19.20;17.40;;;25.30;99.90;;;;;;4981473;28;20475;-81
2022/07/21 12:22:47;;;;;;;18.07;16.57;;;25.30;99.90;;;;;;4980802;28;20458;-81
2022/07/21 12:25:17;;;;;;;19.70;18.00;;;25.40;99.90;;;;;;4980575;28;20448;-81
2022/07/21 12:27:49;;;;;;;19.20;17.70;;;25.40;99.90;;;;;;4981099;28;20530;-81
2022/07/21 12:30:34;;;;;;;19.23;17.70;;;25.40;99.90;;;;;;4962931;28;20475;-81
2022/07/21 12:33:05;;;;;;;19.20;17.70;;;25.40;99.90;;;;;;4980679;28;20465;-81
2022/07/21 12:35:34;;;;;;;19.60;18.00;;;25.40;99.90;;;;;;4963558;28;20477;-81
2022/07/21 12:38:08;;;;;;;17.40;16.10;;;25.40;99.90;;;;;;4981862;28;20446;-81
2022/07/21 12:40:38;;;;;;;17.00;15.60;;;25.30;99.90;;;;;;4963306;28;20450;-82
2022/07/21 12:43:22;;;;;;;13.90;12.80;;;25.30;99.90;;;;;;4962009;28;20549;-81
2022/07/21 12:45:52;;;;;;;11.90;11.00;;;25.10;99.90;;;;;;4962239;28;20488;-82
2022/07/21 12:48:23;;;;;;;12.17;11.20;;;24.90;99.90;;;;;;4963878;28;20452;-82
2022/07/21 12:51:04;;;;;;;13.60;12.60;;;24.80;99.90;;;;;;4985550;28;20465;-82
2022/07/21 12:53:36;;;;;;;13.40;12.40;;;24.60;99.90;;;;;;4966681;28;20441;-82
2022/07/21 12:56:05;;;;;;;14.10;13.00;;;24.50;99.90;;;;;;4967959;28;20469;-82
2022/07/21 12:58:33;;;;;;;13.97;12.87;;;24.30;99.90;;;;;;4966992;28;20943;-82
2022/07/21 13:01:02;;;;;;;13.13;12.03;;;24.20;99.90;;;;;;4985768;28;20441;-82
2022/07/21 13:03:32;;;;;;;13.30;12.30;;;24.20;99.90;;;;;;4969694;28;20456;-82
2022/07/21 13:06:01;;;;;;;15.67;14.47;;;24.00;99.90;;;;;;4981552;28;20446;-82
2022/07/21 13:08:30;;;;;;;15.13;13.93;;;24.00;99.90;;;;;;4981874;28;20448;-82
2022/07/21 13:11:00;;;;;;;17.33;15.77;;;23.90;99.90;;;;;;4982004;28;20523;-82
2022/07/21 13:13:29;;;;;;;17.90;16.53;;;23.80;99.90;;;;;;4982358;28;20461;-82
2022/07/21 13:15:57;;;;;;;18.90;17.40;;;23.80;99.90;;;;;;4982377;28;20454;-82
2022/07/21 13:18:26;;;;;;;20.53;18.77;;;23.90;99.90;;;;;;4965900;28;20453;-82
2022/07/21 13:20:55;;;;;;;19.70;18.10;;;24.00;99.90;;;;;;4966891;28;20458;-82
2022/07/21 13:23:24;;;;;;;19.67;18.00;;;24.10;99.90;;;;;;4969387;28;20465;-82
2022/07/21 13:25:52;;;;;;;21.63;19.70;;;24.30;99.90;;;;;;4976136;28;20879;-82